createdAt,value
2019-01-23T00:09:53.976Z,269.07
2019-01-23T00:21:35.484Z,264.73
2019-01-23T00:33:16.920Z,246.03
2019-01-23T00:44:59.208Z,232.57
2019-01-23T00:56:40.524Z,198.47
2019-01-23T01:08:21.943Z,247.53
2019-01-23T01:20:12.627Z,299.93
2019-01-23T01:31:55.264Z,228.37
2019-01-23T01:43:36.788Z,212.33
2019-01-23T01:55:19.044Z,240.87
2019-01-23T02:07:00.465Z,186.07
2019-01-23T02:18:41.933Z,207.80
2019-01-23T02:30:24.373Z,239.97
2019-01-23T02:42:05.872Z,244.93
2019-01-23T02:53:47.332Z,194.03
2019-01-23T03:05:29.696Z,211.90
2019-01-23T03:17:11.095Z,191.60
2019-01-23T03:28:52.476Z,163.67
2019-01-23T03:40:33.817Z,145.97
2019-01-23T03:52:15.947Z,162.83
2019-01-23T04:03:57.475Z,139.30
2019-01-23T04:15:39.822Z,141.50
2019-01-23T04:27:21.277Z,123.30
2019-01-23T04:39:05.309Z,185.30
2019-01-23T04:51:04.420Z,173.63
2019-01-23T05:02:45.856Z,181.27
2019-01-23T05:14:27.492Z,130.80
2019-01-23T05:26:09.820Z,151.63
2019-01-23T05:37:51.192Z,149.33
2019-01-23T05:49:32.592Z,153.70
2019-01-23T06:01:14.311Z,130.57
2019-01-23T06:12:55.820Z,144.87
2019-01-23T06:24:37.408Z,157.73
2019-01-23T06:36:19.731Z,109.43
2019-01-23T06:48:01.056Z,148.50
2019-01-23T06:59:42.452Z,127.23
2019-01-23T07:11:23.791Z,141.30
2019-01-23T07:23:05.323Z,156.87
2019-01-23T07:34:46.756Z,131.53
2019-01-23T07:46:29.763Z,87.20
2019-01-23T07:58:11.139Z,94.50
2019-01-23T08:09:52.861Z,96.73
2019-01-23T08:21:34.188Z,75.60
2019-01-23T08:33:15.607Z,89.07
2019-01-23T08:44:57.128Z,90.33
2019-01-23T08:56:39.440Z,89.47
2019-01-23T09:08:20.817Z,92.33
2019-01-23T09:20:06.756Z,72.20
2019-01-23T09:31:54.512Z,92.80
2019-01-23T09:43:53.237Z,95.20
2019-01-23T09:55:34.772Z,79.00
2019-01-23T10:07:17.069Z,67.23
2019-01-23T10:18:58.488Z,73.07
2019-01-23T10:30:39.920Z,78.07
2019-01-23T10:42:21.360Z,61.00
2019-01-23T10:54:02.924Z,66.83
2019-01-23T11:05:44.481Z,68.83
2019-01-23T11:17:26.793Z,78.80
2019-01-23T11:29:08.149Z,94.50
2019-01-23T11:40:49.463Z,94.30
2019-01-23T11:52:30.796Z,99.27
2019-01-23T12:04:13.160Z,94.37
2019-01-23T12:15:54.647Z,101.77
2019-01-23T12:27:36.878Z,104.07
2019-01-23T12:39:18.280Z,118.33
2019-01-23T12:50:59.712Z,100.43
2019-01-23T13:02:41.020Z,85.77
2019-01-23T13:14:22.544Z,93.40
2019-01-23T13:26:04.093Z,82.87
2019-01-23T13:37:46.384Z,95.77
2019-01-23T13:49:28.801Z,54.97
2019-01-23T14:01:28.444Z,61.43
2019-01-23T14:49:12.940Z,73.27
2019-01-23T15:00:54.456Z,94.23
2019-01-23T15:12:35.888Z,130.23
2019-01-23T15:24:17.372Z,70.23
2019-01-23T15:35:58.908Z,89.93
2019-01-23T15:47:40.444Z,215.23
2019-01-23T15:59:24.440Z,216.33
2019-01-23T16:11:05.876Z,451.43
2019-01-23T16:22:47.300Z,199.57
2019-01-23T16:34:28.691Z,221.93
2019-01-23T16:46:10.102Z,128.20
2019-01-23T16:57:51.812Z,159.83
2019-01-23T17:09:34.104Z,127.63
2019-01-23T17:21:16.376Z,88.73
2019-01-23T17:32:57.820Z,98.25
2019-01-23T17:44:39.368Z,82.77
2019-01-23T17:56:20.869Z,137.17
2019-01-23T18:08:02.415Z,169.20
2019-01-23T18:19:44.701Z,212.43
2019-01-23T18:31:28.120Z,159.07
2019-01-23T18:43:33.301Z,106.03
2019-01-23T18:55:16.832Z,104.63
2019-01-23T19:06:58.377Z,84.03
2019-01-23T19:18:39.916Z,115.50
2019-01-23T19:30:22.636Z,76.23
2019-01-23T19:42:04.408Z,100.70
2019-01-23T19:53:45.845Z,78.30
2019-01-23T20:05:27.249Z,99.43
2019-01-23T20:17:08.880Z,73.07
2019-01-23T20:28:50.221Z,72.07
2019-01-23T20:40:32.376Z,74.17
2019-01-23T20:52:13.805Z,72.13
2019-01-23T21:03:55.256Z,55.87
2019-01-23T21:15:36.686Z,82.03
2019-01-23T21:27:18.316Z,73.50
2019-01-23T21:38:59.752Z,76.87
2019-01-23T21:50:42.076Z,67.97
2019-01-23T22:02:23.497Z,71.50
2019-01-23T22:14:04.928Z,63.13
2019-01-23T22:25:46.265Z,69.47
2019-01-23T22:37:27.863Z,73.17
2019-01-23T22:49:09.292Z,67.23
2019-01-23T23:01:01.386Z,90.90
2019-01-23T23:12:44.709Z,86.37
2019-01-23T23:24:26.108Z,76.50
2019-01-23T23:36:07.542Z,76.77
2019-01-23T23:47:49.123Z,78.20
2019-01-23T23:59:30.650Z,88.23
